Time;durP1;ratioP1;P1;durP2;ratioP2;P2;SDS_P1;SDS_P2;PMS_P1;PMS_P2;Temp;Humidity;BMP_temperature;BMP_pressure;BME280_temperature;BME280_humidity;BME280_pressure;Samples;Min_cycle;Max_cycle;Signal;HPM_P1;HPM_P2
2023/01/13 00:00:33;;;;;;;1.27;0.80;;;;;;;10.95;92.89;99143.56;5073143;28;20416;-62
2023/01/13 00:03:02;;;;;;;1.70;0.90;;;;;;;11.00;93.03;99145.28;5068831;28;20064;-62
2023/01/13 00:05:29;;;;;;;1.15;0.80;;;;;;;10.87;93.33;99155.63;5073131;28;20051;-61
2023/01/13 00:07:57;;;;;;;1.88;1.00;;;;;;;10.91;93.18;99141.81;5072842;28;20052;-61
2023/01/13 00:10:24;;;;;;;2.00;1.15;;;;;;;10.91;93.08;99142.63;5073130;28;20053;-61
2023/01/13 00:12:52;;;;;;;1.83;1.00;;;;;;;10.99;93.59;99143.69;5072975;28;20049;-61
2023/01/13 00:15:19;;;;;;;2.15;1.45;;;;;;;11.04;93.30;99139.84;5073086;28;20052;-61
2023/01/13 00:17:47;;;;;;;1.00;0.80;;;;;;;11.00;92.58;99141.69;5065635;28;20049;-62
2023/01/13 00:20:16;;;;;;;1.50;1.00;;;;;;;11.04;92.50;99140.63;5060193;28;20053;-61
2023/01/13 00:22:43;;;;;;;2.25;1.00;;;;;;;10.99;92.36;99154.00;5070769;28;20413;-61
2023/01/13 00:25:11;;;;;;;1.35;0.90;;;;;;;10.99;92.25;99138.09;5055638;28;20417;-61
2023/01/13 00:27:38;;;;;;;1.30;0.70;;;;;;;11.00;92.20;99138.91;5052937;28;20057;-61
2023/01/13 00:30:08;;;;;;;1.65;0.70;;;;;;;10.95;91.37;99146.34;5052223;28;20065;-61
2023/01/13 00:32:35;;;;;;;2.55;1.23;;;;;;;10.99;91.10;99162.38;5051723;28;20044;-61
2023/01/13 00:35:03;;;;;;;2.15;0.90;;;;;;;10.98;90.93;99144.81;5052459;28;20048;-61
2023/01/13 00:37:32;;;;;;;0.77;0.50;;;;;;;10.97;90.15;99135.66;5052403;28;20053;-62
2023/01/13 00:39:59;;;;;;;1.65;0.70;;;;;;;11.04;90.02;99150.97;5052104;28;20411;-61
2023/01/13 00:45:11;;;;;;;1.20;0.60;;;;;;;10.98;89.97;99130.88;5057567;28;20068;-62
2023/01/13 00:47:38;;;;;;;2.08;1.00;;;;;;;10.92;90.53;99112.81;5053079;28;20059;-62
2023/01/13 00:50:06;;;;;;;1.48;0.60;;;;;;;10.99;89.23;99117.78;5051769;28;20052;-61
2023/01/13 00:52:34;;;;;;;1.40;0.70;;;;;;;10.90;88.83;99129.06;5065729;28;20059;-62
2023/01/13 00:55:04;;;;;;;1.50;0.60;;;;;;;10.79;87.01;99123.13;5059757;28;20059;-62
2023/01/13 00:57:35;;;;;;;2.35;0.90;;;;;;;10.83;86.49;99124.06;5055535;28;20505;-61
2023/01/13 01:00:02;;;;;;;2.70;0.75;;;;;;;10.84;86.86;99139.63;5051068;28;20048;-62
2023/01/13 01:02:29;;;;;;;3.17;0.85;;;;;;;10.77;85.13;99114.31;5067509;28;20516;-61
2023/01/13 01:04:58;;;;;;;2.65;0.80;;;;;;;10.72;84.71;99115.38;5051200;28;20055;-62
2023/01/13 01:07:26;;;;;;;2.47;1.17;;;;;;;10.77;84.58;99142.16;5051628;28;20052;-61
2023/01/13 01:09:57;;;;;;;4.90;1.08;;;;;;;10.80;86.01;99152.63;5052085;28;20394;-61
2023/01/13 01:12:24;;;;;;;2.35;0.98;;;;;;;10.79;85.00;99144.59;5052384;28;20052;-62
2023/01/13 01:14:52;;;;;;;4.80;1.23;;;;;;;10.82;86.04;99150.31;5056144;28;20481;-61
2023/01/13 01:17:19;;;;;;;4.50;1.10;;;;;;;10.86;86.58;99150.44;5075227;28;20052;-61
2023/01/13 01:19:46;;;;;;;6.20;1.20;;;;;;;10.89;87.39;99156.09;5078973;28;20063;-61
2023/01/13 01:22:14;;;;;;;2.15;0.80;;;;;;;10.91;86.04;99155.75;5078809;28;20504;-61
2023/01/13 01:24:41;;;;;;;3.10;1.08;;;;;;;10.96;86.71;99155.50;5065564;28;20053;-61
2023/01/13 01:27:10;;;;;;;4.93;1.08;;;;;;;10.94;86.56;99152.25;5058853;28;20399;-61
2023/01/13 01:29:37;;;;;;;4.93;1.40;;;;;;;10.96;87.19;99178.63;5059164;28;20429;-61
2023/01/13 01:32:04;;;;;;;4.65;1.45;;;;;;;10.97;84.98;99148.78;5078451;28;20059;-61
2023/01/13 01:34:32;;;;;;;2.90;1.10;;;;;;;10.90;85.13;99159.72;5078771;28;20056;-62
2023/01/13 01:36:59;;;;;;;5.03;1.17;;;;;;;10.74;83.96;99160.38;5078897;28;20083;-62
2023/01/13 01:39:29;;;;;;;5.53;1.05;;;;;;;10.79;83.63;99172.47;5078572;28;20508;-61
2023/01/13 01:44:58;;;;;;;4.47;1.00;;;;;;;10.52;79.42;99161.66;5077392;28;20059;-61
2023/01/13 01:47:27;;;;;;;4.90;1.00;;;;;;;10.50;79.81;99140.91;5078625;28;20048;-60
2023/01/13 01:49:56;;;;;;;3.95;1.00;;;;;;;10.52;80.01;99161.66;5078302;28;20052;-61
2023/01/13 01:52:28;;;;;;;5.35;1.25;;;;;;;10.50;80.95;99155.63;5078769;28;20512;-60
2023/01/13 01:55:00;;;;;;;5.10;1.30;;;;;;;10.49;81.19;99162.34;5078651;28;20474;-61
2023/01/13 01:57:31;;;;;;;5.00;1.60;;;;;;;10.53;81.54;99162.47;5078562;28;20056;-60
2023/01/13 02:00:00;;;;;;;5.05;1.42;;;;;;;10.50;81.56;99165.97;5074844;28;20061;-62
2023/01/13 02:02:28;;;;;;;5.35;1.15;;;;;;;10.57;81.73;99172.56;5071568;28;20505;-61
2023/01/13 02:04:57;;;;;;;6.50;1.35;;;;;;;10.52;81.87;99177.53;5076063;28;20048;-61
2023/01/13 02:07:28;;;;;;;5.13;1.40;;;;;;;10.61;82.05;99164.34;5078406;28;20048;-61
2023/01/13 02:09:57;;;;;;;5.18;1.30;;;;;;;10.57;81.72;99155.06;5078112;28;21024;-61
2023/01/13 02:12:30;;;;;;;6.43;1.38;;;;;;;10.56;82.13;99147.84;5078380;28;20053;-61
2023/01/13 02:15:03;;;;;;;3.60;1.33;;;;;;;10.59;81.07;99124.09;5067263;28;20049;-62
2023/01/13 02:17:56;;;;;;;5.78;1.20;;;;;;;10.52;81.01;99160.81;5069201;28;20048;-61
2023/01/13 02:20:46;;;;;;;6.38;1.65;;;;;;;10.45;80.73;99141.13;5078270;28;20048;-61
2023/01/13 02:27:09;;;;;;;4.60;1.40;;;;;;;10.34;79.92;99158.25;5057068;28;20093;-61
2023/01/13 02:32:50;;;;;;;4.35;1.52;;;;;;;10.05;78.68;99150.84;5080682;28;20504;-62
2023/01/13 02:35:24;;;;;;;5.47;1.33;;;;;;;10.08;79.14;99135.44;5034849;28;20055;-61
2023/01/13 02:37:53;;;;;;;6.40;1.52;;;;;;;10.05;79.70;99150.84;5035016;28;20049;-61
2023/01/13 02:40:25;;;;;;;5.40;1.55;;;;;;;10.05;79.82;99145.28;5034949;28;20053;-61
2023/01/13 02:45:52;;;;;;;5.35;1.50;;;;;;;9.98;79.40;99150.63;5069334;28;20508;-62
2023/01/13 02:48:22;;;;;;;5.03;1.23;;;;;;;9.98;77.98;99142.28;5074798;28;20052;-62
2023/01/13 02:50:56;;;;;;;4.22;0.90;;;;;;;9.97;77.73;99143.41;5071541;28;20048;-62
2023/01/13 02:53:29;;;;;;;5.20;1.45;;;;;;;9.90;78.54;99151.50;5074593;28;20056;-61
2023/01/13 02:55:58;;;;;;;5.45;1.17;;;;;;;9.84;79.04;99144.53;5074864;28;20409;-62
2023/01/13 02:58:29;;;;;;;4.40;1.10;;;;;;;9.77;77.58;99147.06;5066503;28;20053;-61
2023/01/13 03:00:58;;;;;;;6.50;1.67;;;;;;;9.82;78.08;99149.63;5034650;28;20060;-61
2023/01/13 03:03:25;;;;;;;3.47;1.30;;;;;;;9.83;77.38;99151.28;5033900;28;20049;-61
2023/01/13 03:06:01;;;;;;;2.90;1.20;;;;;;;9.78;78.01;99170.94;5034477;28;20072;-62
2023/01/13 03:08:41;;;;;;;3.83;1.02;;;;;;;9.83;78.72;99165.97;5034762;28;20509;-61
2023/01/13 03:11:11;;;;;;;3.05;0.90;;;;;;;9.76;77.69;99168.47;5034459;28;20061;-61
2023/01/13 03:13:47;;;;;;;;;;;;;;;9.66;76.84;99161.38;5049856;28;20503;-61
2023/01/13 03:16:28;;;;;;;3.45;0.90;;;;;;;9.60;75.47;99159.97;5074227;28;20285;-62
2023/01/13 03:19:09;;;;;;;5.47;1.33;;;;;;;9.57;75.59;99162.59;5074363;28;20048;-62
2023/01/13 03:21:43;;;;;;;3.80;1.42;;;;;;;9.52;76.08;99152.50;5074333;28;20056;-61
2023/01/13 03:24:17;;;;;;;4.35;0.95;;;;;;;9.44;74.76;99164.50;5064593;28;20383;-61
2023/01/13 03:26:49;;;;;;;4.88;1.58;;;;;;;9.33;74.72;99151.03;5054260;28;20060;-61
2023/01/13 03:29:22;;;;;;;4.72;1.20;;;;;;;9.33;76.27;99162.13;5063535;28;20048;-62
2023/01/13 03:31:58;;;;;;;6.45;1.33;;;;;;;9.28;75.51;99151.25;5074098;28;20127;-61
2023/01/13 03:34:32;;;;;;;3.47;1.20;;;;;;;9.30;75.21;99150.88;5073850;28;20060;-62
2023/01/13 03:37:05;;;;;;;5.32;1.50;;;;;;;9.23;72.84;99153.38;5074219;28;20052;-66
2023/01/13 03:39:37;;;;;;;6.22;2.10;;;;;;;9.25;73.95;99154.66;5073851;28;20083;-67
2023/01/13 03:42:10;;;;;;;7.97;1.63;;;;;;;9.20;73.88;99154.06;5069151;28;20375;-65
2023/01/13 03:44:41;;;;;;;5.07;1.50;;;;;;;9.13;74.43;99147.09;5043151;28;20052;-66
2023/01/13 03:47:18;;;;;;;6.38;1.50;;;;;;;9.10;75.97;99139.41;5073150;28;20057;-65
2023/01/13 03:49:53;;;;;;;7.68;1.40;;;;;;;9.07;74.51;99139.28;5073584;28;20053;-67
2023/01/13 03:52:24;;;;;;;5.57;1.52;;;;;;;9.08;74.80;99140.91;5073661;28;20063;-62
2023/01/13 03:54:56;;;;;;;6.43;2.13;;;;;;;9.01;74.00;99141.44;5073234;28;20060;-62
2023/01/13 03:57:29;;;;;;;8.23;1.92;;;;;;;8.96;74.27;99152.75;5069517;28;20409;-62
2023/01/13 04:00:02;;;;;;;9.55;2.47;;;;;;;8.81;74.34;99154.13;5073242;28;20049;-62
2023/01/13 04:02:40;;;;;;;7.20;1.83;;;;;;;8.89;75.19;99152.47;5073099;28;20053;-62
2023/01/13 04:05:10;;;;;;;9.88;1.80;;;;;;;8.83;75.46;99151.84;5072913;28;20052;-61
2023/01/13 04:07:48;;;;;;;7.72;1.50;;;;;;;8.77;74.86;99149.59;5073095;28;20059;-61
2023/01/13 04:10:21;;;;;;;10.35;2.20;;;;;;;8.77;76.28;99147.63;5073011;28;20396;-62
2023/01/13 04:13:03;;;;;;;6.13;1.75;;;;;;;8.71;75.03;99138.69;5069315;28;20477;-62
2023/01/13 04:15:34;;;;;;;5.80;2.20;;;;;;;8.72;74.90;99153.38;5073066;28;20504;-61
2023/01/13 04:18:10;;;;;;;6.35;1.60;;;;;;;8.68;76.90;99163.53;5072932;28;20055;-62
2023/01/13 04:20:38;;;;;;;9.85;1.83;;;;;;;8.66;77.26;99160.28;5073068;28;20048;-62
2023/01/13 04:23:06;;;;;;;9.18;1.60;;;;;;;8.66;76.50;99163.84;5072711;28;20044;-62
2023/01/13 04:25:34;;;;;;;5.55;1.95;;;;;;;8.59;75.82;99151.63;5072985;28;20425;-62
2023/01/13 04:28:01;;;;;;;8.63;1.98;;;;;;;8.61;76.67;99155.72;5068762;28;20048;-62
2023/01/13 04:30:28;;;;;;;8.55;1.70;;;;;;;8.61;78.10;99146.56;5069760;28;20057;-62
2023/01/13 04:32:56;;;;;;;7.25;1.80;;;;;;;8.60;76.75;99167.16;5051731;28;20052;-62
2023/01/13 04:35:24;;;;;;;8.00;2.13;;;;;;;8.62;77.62;99151.78;5052311;28;20052;-62
2023/01/13 04:37:52;;;;;;;6.18;2.10;;;;;;;8.60;77.31;99148.53;5052878;28;20057;-62
2023/01/13 04:40:19;;;;;;;5.25;1.80;;;;;;;8.57;77.61;99148.38;5051833;28;20386;-62
2023/01/13 04:42:46;;;;;;;9.27;1.65;;;;;;;8.54;76.04;99145.13;5072695;28;20052;-62
2023/01/13 04:45:14;;;;;;;5.00;2.03;;;;;;;8.54;77.14;99150.66;5072193;28;20059;-63
2023/01/13 04:47:41;;;;;;;7.28;1.80;;;;;;;8.59;77.17;99151.63;5072705;28;20508;-62
2023/01/13 04:52:57;;;;;;;6.25;1.98;;;;;;;8.58;76.19;99150.81;5072564;28;20056;-62
2023/01/13 04:55:24;;;;;;;6.95;1.90;;;;;;;8.57;78.09;99154.75;5068341;28;20063;-62
2023/01/13 04:57:52;;;;;;;7.45;1.67;;;;;;;8.57;77.16;99149.22;5072638;28;20405;-62
2023/01/13 05:00:22;;;;;;;9.57;1.90;;;;;;;8.63;75.87;99136.78;5072293;28;20048;-62
2023/01/13 05:02:50;;;;;;;;;;;;;;;8.64;75.95;99138.38;5072794;28;20048;-62
2023/01/13 05:05:17;;;;;;;8.73;1.73;;;;;;;8.65;76.36;99131.69;5072301;28;19921;-62
2023/01/13 05:07:45;;;;;;;10.27;2.10;;;;;;;8.76;76.91;99140.47;5072652;28;20053;-63
2023/01/13 05:10:14;;;;;;;17.42;2.90;;;;;;;8.72;75.62;99145.84;5066356;28;20053;-63
2023/01/13 05:18:11;;;;;;;9.82;2.35;;;;;;;8.73;76.35;99152.22;5077843;28;20059;-64
2023/01/13 05:20:38;;;;;;;8.85;1.77;;;;;;;8.75;75.56;99133.25;5072179;28;20052;-62
2023/01/13 05:25:51;;;;;;;8.77;2.03;;;;;;;8.82;74.72;99135.50;5066504;28;20064;-63
2023/01/13 05:28:18;;;;;;;8.55;2.13;;;;;;;8.84;75.86;99136.81;5067386;28;20048;-63
2023/01/13 05:30:48;;;;;;;11.77;2.42;;;;;;;8.90;74.68;99157.69;5072012;28;20057;-62
2023/01/13 05:33:17;;;;;;;12.63;2.13;;;;;;;8.97;75.26;99146.06;5060201;28;20053;-63
2023/01/13 05:35:45;;;;;;;9.03;2.47;;;;;;;9.00;75.37;99150.91;5049945;28;20053;-66
2023/01/13 05:38:13;;;;;;;13.77;3.83;;;;;;;8.95;74.08;99126.13;5048226;28;20045;-66
2023/01/13 05:43:28;;;;;;;11.55;2.20;;;;;;;8.93;75.71;99139.53;5055439;28;20060;-63
2023/01/13 05:45:57;;;;;;;10.80;3.05;;;;;;;9.02;75.75;99151.41;5051240;28;20057;-63
2023/01/13 05:48:26;;;;;;;11.45;3.15;;;;;;;9.06;76.17;99140.44;5049056;28;20052;-63
2023/01/13 05:50:54;;;;;;;15.07;2.85;;;;;;;9.02;76.97;99154.19;5053618;28;20079;-63
2023/01/13 05:53:23;;;;;;;10.23;2.80;;;;;;;9.03;77.61;99166.09;5049003;28;20052;-63
2023/01/13 05:55:50;;;;;;;8.40;2.17;;;;;;;8.99;75.68;99165.13;5053396;28;20060;-64
2023/01/13 05:58:20;;;;;;;9.55;2.63;;;;;;;8.94;74.72;99158.66;5054072;28;20053;-63
2023/01/13 06:00:49;;;;;;;11.35;2.63;;;;;;;8.85;75.23;99155.09;5059599;28;20055;-63
2023/01/13 06:03:18;;;;;;;9.15;2.85;;;;;;;8.81;75.05;99170.78;5055143;28;20060;-63
2023/01/13 06:05:47;;;;;;;7.50;2.10;;;;;;;8.87;75.41;99163.09;5058658;28;20053;-63
2023/01/13 06:08:14;;;;;;;15.25;2.65;;;;;;;8.91;75.61;99150.16;5051976;28;20495;-64
2023/01/13 06:10:41;;;;;;;10.82;3.58;;;;;;;8.99;74.41;99170.69;5044040;28;20045;-62
2023/01/13 06:13:09;;;;;;;6.15;2.58;;;;;;;9.01;76.41;99152.56;5057579;28;20381;-63
2023/01/13 06:15:36;;;;;;;9.15;2.70;;;;;;;9.03;74.72;99160.53;5051930;28;20424;-63
2023/01/13 06:18:05;;;;;;;10.77;2.70;;;;;;;9.08;74.24;99160.34;5053230;28;20063;-63
2023/01/13 06:20:32;;;;;;;15.20;3.23;;;;;;;9.04;75.11;99151.06;5055083;28;20061;-63
2023/01/13 06:23:00;;;;;;;10.43;2.92;;;;;;;9.11;73.88;99148.56;5054136;28;20486;-62
2023/01/13 06:25:42;;;;;;;10.13;3.38;;;;;;;9.08;74.81;99168.69;5053953;28;20045;-63
2023/01/13 06:28:10;;;;;;;11.90;3.53;;;;;;;9.10;74.10;99169.16;5053363;28;20053;-64
2023/01/13 06:30:42;;;;;;;12.40;3.72;;;;;;;9.01;74.79;99172.00;5051217;28;20056;-63
2023/01/13 06:33:14;;;;;;;9.95;3.08;;;;;;;9.07;74.37;99169.81;5049691;28;20052;-63
2023/01/13 06:35:46;;;;;;;9.45;3.42;;;;;;;9.07;74.53;99180.94;5055028;28;20053;-62
2023/01/13 06:38:17;;;;;;;12.32;2.75;;;;;;;9.10;74.99;99183.88;5052813;28;20049;-63
2023/01/13 06:40:45;;;;;;;12.40;3.17;;;;;;;9.11;73.90;99187.44;5061156;28;20465;-64
2023/01/13 06:43:14;;;;;;;8.13;2.50;;;;;;;9.21;72.83;99192.63;5066052;28;20049;-63
2023/01/13 06:45:46;;;;;;;14.23;3.05;;;;;;;9.22;74.32;99194.25;5058922;28;20044;-63
2023/01/13 06:48:16;;;;;;;14.25;2.72;;;;;;;9.20;73.25;99170.72;5055255;28;20058;-63
2023/01/13 06:50:43;;;;;;;6.10;2.10;;;;;;;9.17;72.46;99166.66;5038716;28;20060;-63
2023/01/13 06:53:11;;;;;;;10.77;2.53;;;;;;;9.14;71.08;99178.47;5053171;28;20048;-62
2023/01/13 06:55:38;;;;;;;7.15;2.10;;;;;;;9.19;72.19;99189.34;5059179;28;20071;-63
2023/01/13 06:58:05;;;;;;;8.25;2.28;;;;;;;9.20;71.48;99171.56;5054023;28;20056;-63
2023/01/13 07:00:35;;;;;;;10.05;2.50;;;;;;;9.20;71.43;99177.13;5041917;28;20053;-63
2023/01/13 07:03:10;;;;;;;5.90;2.25;;;;;;;9.18;70.52;99201.63;5036542;28;20058;-64
2023/01/13 07:05:41;;;;;;;6.55;2.30;;;;;;;9.12;71.43;99181.56;5037622;28;20551;-64
2023/01/13 07:08:10;;;;;;;10.75;2.63;;;;;;;9.07;71.23;99184.56;5063547;28;20049;-63
2023/01/13 07:10:38;;;;;;;11.43;2.90;;;;;;;9.07;71.28;99186.50;5067871;28;20072;-63
2023/01/13 07:15:56;;;;;;;6.47;2.00;;;;;;;8.91;71.08;99191.81;5074237;28;20064;-62
2023/01/13 07:18:26;;;;;;;9.75;2.58;;;;;;;8.90;72.47;99198.50;5071259;28;20052;-63
2023/01/13 07:20:56;;;;;;;6.80;2.92;;;;;;;8.90;73.69;99195.72;5074232;28;20063;-63
2023/01/13 07:23:23;;;;;;;11.57;2.53;;;;;;;8.91;72.72;99189.06;5071623;28;20053;-62
2023/01/13 07:25:51;;;;;;;8.80;2.00;;;;;;;8.91;72.71;99194.59;5065371;28;20060;-63
2023/01/13 07:28:18;;;;;;;6.50;1.90;;;;;;;8.80;71.53;99196.94;5074040;28;20053;-63
2023/01/13 07:30:45;;;;;;;13.27;6.75;;;;;;;8.85;72.20;99193.97;5073597;28;20052;-63
2023/01/13 07:33:13;;;;;;;13.15;3.75;;;;;;;8.84;72.27;99203.47;5069239;28;20048;-62
2023/01/13 07:35:40;;;;;;;10.57;2.35;;;;;;;8.81;72.22;99200.53;5064118;28;20056;-63
2023/01/13 07:38:08;;;;;;;9.52;2.83;;;;;;;8.70;72.19;99208.41;5054084;28;20060;-67
2023/01/13 07:40:36;;;;;;;9.57;2.10;;;;;;;8.69;72.77;99213.16;5052699;28;20052;-67
2023/01/13 07:45:47;;;;;;;9.95;2.08;;;;;;;8.83;71.71;99196.25;5053313;28;20055;-68
2023/01/13 07:48:15;;;;;;;9.00;1.90;;;;;;;8.79;71.48;99205.59;5050055;28;20049;-68
2023/01/13 07:50:42;;;;;;;11.10;2.50;;;;;;;8.84;71.58;99214.56;5047956;28;20056;-67
2023/01/13 07:53:11;;;;;;;7.40;2.03;;;;;;;8.92;73.16;99210.09;5048203;28;20060;-68
2023/01/13 07:55:41;;;;;;;8.80;2.10;;;;;;;8.97;71.72;99206.34;5047760;28;20049;-68
2023/01/13 07:58:08;;;;;;;8.23;2.10;;;;;;;8.88;72.56;99203.59;5045648;28;20053;-68
2023/01/13 08:00:36;;;;;;;10.98;1.85;;;;;;;8.82;70.60;99210.47;5047757;28;20485;-68
2023/01/13 08:03:03;;;;;;;12.60;2.72;;;;;;;8.79;70.92;99227.81;5049182;28;20057;-67
2023/01/13 08:05:31;;;;;;;5.45;1.83;;;;;;;8.73;70.63;99216.06;5048525;28;20056;-67
2023/01/13 08:07:58;;;;;;;8.77;2.10;;;;;;;8.74;71.40;99228.81;5054423;28;20052;-68
2023/01/13 08:10:27;;;;;;;6.75;2.08;;;;;;;8.72;70.04;99231.91;5068047;28;20044;-68
2023/01/13 08:15:39;;;;;;;11.23;2.30;;;;;;;8.75;68.48;99219.31;5077512;28;20434;-69
2023/01/13 08:18:06;;;;;;;9.52;2.40;;;;;;;9.01;69.46;99240.59;5055639;28;20482;-64
2023/01/13 08:20:33;;;;;;;10.77;2.70;;;;;;;9.12;70.08;99242.69;5056227;28;20477;-64
2023/01/13 08:23:07;;;;;;;6.60;1.65;;;;;;;9.37;69.07;99278.19;5070659;28;20055;-66
2023/01/13 08:25:37;;;;;;;7.57;2.30;;;;;;;9.34;67.88;99249.91;5041311;28;20067;-63
2023/01/13 08:28:04;;;;;;;15.77;5.22;;;;;;;9.38;67.88;99268.69;5072373;28;20048;-65
2023/01/13 08:30:32;;;;;;;8.13;3.17;;;;;;;9.34;68.26;99244.38;5072404;28;20048;-64
2023/01/13 08:32:59;;;;;;;9.30;1.95;;;;;;;9.32;68.07;99281.94;5063371;28;20432;-65
2023/01/13 08:35:26;;;;;;;8.52;2.10;;;;;;;9.29;65.99;99269.56;5052498;28;20370;-65
2023/01/13 08:37:54;;;;;;;9.85;1.95;;;;;;;9.28;67.22;99279.06;5051597;28;20402;-64
2023/01/13 08:40:21;;;;;;;10.13;2.22;;;;;;;9.30;66.76;99293.44;5064486;28;20493;-64
2023/01/13 08:42:51;;;;;;;8.82;2.70;;;;;;;9.40;66.78;99271.94;5060645;28;20505;-64
2023/01/13 08:45:19;;;;;;;7.85;1.95;;;;;;;9.34;66.24;99283.28;5052558;28;20053;-65
2023/01/13 08:47:46;;;;;;;8.07;2.35;;;;;;;9.29;66.77;99296.53;5052642;28;20413;-64
2023/01/13 08:50:14;;;;;;;8.88;1.75;;;;;;;9.28;67.32;99278.22;5052981;28;20052;-64
2023/01/13 08:52:42;;;;;;;8.25;2.63;;;;;;;9.20;66.63;99270.72;5054073;28;20053;-64
2023/01/13 08:55:10;;;;;;;8.32;2.20;;;;;;;9.35;68.74;99279.31;5052566;28;20477;-64
2023/01/13 08:57:37;;;;;;;7.85;2.53;;;;;;;9.31;68.27;99289.47;5065333;28;20448;-64
2023/01/13 09:00:07;;;;;;;9.40;2.15;;;;;;;9.35;67.71;99301.56;5052257;28;20438;-64
2023/01/13 09:02:35;;;;;;;8.07;2.35;;;;;;;9.30;66.36;99309.25;5050474;28;20052;-64
2023/01/13 09:05:03;;;;;;;9.60;2.15;;;;;;;9.36;66.55;99302.38;5051254;28;20060;-64
2023/01/13 09:07:30;;;;;;;10.95;2.30;;;;;;;9.27;67.10;99290.50;5047116;28;20051;-63
2023/01/13 09:09:58;;;;;;;12.18;2.60;;;;;;;9.39;66.83;99306.47;5052611;28;20048;-64
2023/01/13 09:15:12;;;;;;;11.55;2.95;;;;;;;9.47;67.14;99308.34;5056169;28;20059;-63
2023/01/13 09:17:39;;;;;;;9.45;2.40;;;;;;;9.50;67.41;99316.03;5051978;28;20068;-64
2023/01/13 09:20:07;;;;;;;13.32;3.08;;;;;;;9.58;67.15;99306.03;5051521;28;20060;-63
2023/01/13 09:22:36;;;;;;;10.00;2.35;;;;;;;9.64;67.36;99293.53;5049899;28;20409;-63
2023/01/13 09:25:04;;;;;;;13.40;3.00;;;;;;;9.68;67.92;99298.09;5052694;28;20986;-64
2023/01/13 09:27:31;;;;;;;10.93;3.25;;;;;;;9.65;66.43;99292.41;5049113;28;20060;-63
2023/01/13 09:29:58;;;;;;;8.40;2.25;;;;;;;9.58;65.59;99304.06;5049891;28;20068;-64
2023/01/13 09:32:27;;;;;;;9.75;2.20;;;;;;;9.58;66.79;99303.25;5050806;28;20044;-63
2023/01/13 09:34:59;;;;;;;9.23;2.42;;;;;;;9.61;66.62;99292.25;5048758;28;20505;-63
2023/01/13 09:37:27;;;;;;;9.35;2.40;;;;;;;9.54;65.57;99315.03;5054542;28;20060;-63
2023/01/13 09:39:54;;;;;;;11.18;2.97;;;;;;;9.39;65.36;99301.72;5062095;28;20052;-63
2023/01/13 09:45:19;;;;;;;11.48;2.60;;;;;;;9.60;67.10;99304.53;5060398;28;20060;-62
2023/01/13 09:47:56;;;;;;;11.20;3.08;;;;;;;9.57;66.42;99307.97;5055417;28;20053;-62
2023/01/13 09:50:41;;;;;;;9.35;2.40;;;;;;;9.66;67.19;99305.97;5054113;28;20481;-62
2023/01/13 09:53:14;;;;;;;11.00;3.25;;;;;;;9.73;66.44;99320.13;5053019;28;20513;-63
2023/01/13 09:55:44;;;;;;;11.85;2.92;;;;;;;9.72;66.17;99364.97;5049643;28;20048;-63
2023/01/13 09:58:15;;;;;;;10.93;2.45;;;;;;;9.69;66.20;99293.34;5057748;28;20060;-64
2023/01/13 10:00:49;;;;;;;11.60;3.25;;;;;;;9.71;65.64;99319.66;5052300;28;20049;-63
2023/01/13 10:03:25;;;;;;;15.20;3.10;;;;;;;9.79;64.99;99337.44;5048557;28;20064;-63
2023/01/13 10:06:03;;;;;;;11.75;3.88;;;;;;;9.74;64.17;99315.38;5047859;28;20041;-64
2023/01/13 10:08:33;;;;;;;10.57;2.72;;;;;;;9.78;65.42;99296.06;5052770;28;20509;-63
2023/01/13 10:13:12;;;;;;;;;;;;;;;9.79;64.40;99308.84;5052362;28;20461;-62
2023/01/13 10:13:50;;;;;;;10.52;2.75;;;;;;;9.77;65.94;99316.69;5051488;28;19929;-62
2023/01/13 10:16:29;;;;;;;11.48;2.85;;;;;;;9.79;65.23;99311.63;5049440;28;20053;-62
2023/01/13 10:19:06;;;;;;;11.77;2.58;;;;;;;9.73;65.04;99311.78;5047134;28;20049;-62
2023/01/13 10:22:01;;;;;;;11.75;2.83;;;;;;;9.63;63.74;99323.31;5047207;28;20060;-62
2023/01/13 10:24:41;;;;;;;10.98;2.92;;;;;;;9.84;65.50;99308.63;5052784;28;20390;-63
2023/01/13 10:27:17;;;;;;;20.48;4.20;;;;;;;9.75;65.46;99309.50;5050183;28;20053;-61
2023/01/13 10:29:45;;;;;;;23.48;3.97;;;;;;;9.94;65.46;99322.13;5046512;28;20414;-62
2023/01/13 10:32:12;;;;;;;12.23;3.33;;;;;;;9.92;65.33;99319.69;5047597;28;20072;-64
2023/01/13 10:34:48;;;;;;;8.02;3.15;;;;;;;9.85;64.17;99324.97;5045614;28;20053;-62
2023/01/13 10:37:20;;;;;;;18.13;3.90;;;;;;;9.88;64.75;99329.03;5046919;28;20049;-63
2023/01/13 10:39:49;;;;;;;11.63;2.65;;;;;;;9.95;65.30;99318.19;5045728;28;20053;-62
2023/01/13 10:42:18;;;;;;;11.98;3.58;;;;;;;9.95;64.54;99313.47;5055706;28;20060;-61
2023/01/13 10:44:54;;;;;;;13.13;3.47;;;;;;;10.13;65.65;99325.25;5053814;28;20052;-62
2023/01/13 10:47:25;;;;;;;13.57;2.72;;;;;;;10.23;63.89;99326.00;5045203;28;20414;-60
2023/01/13 10:50:21;;;;;;;17.40;3.78;;;;;;;10.23;64.16;99328.78;5061634;28;20040;-61
2023/01/13 10:53:00;;;;;;;12.00;3.17;;;;;;;10.30;62.59;99312.38;5054246;28;20076;-60
2023/01/13 10:55:30;;;;;;;12.80;3.23;;;;;;;10.23;61.91;99323.22;5052796;28;20051;-60
2023/01/13 10:58:11;;;;;;;15.98;3.28;;;;;;;10.41;61.88;99309.97;5051647;28;20049;-60
2023/01/13 11:00:38;;;;;;;14.70;3.63;;;;;;;10.43;60.69;99316.81;5048728;28;20049;-60
2023/01/13 11:03:15;;;;;;;8.68;3.00;;;;;;;10.45;60.71;99303.38;5069790;28;20052;-60
2023/01/13 11:05:51;;;;;;;10.95;3.05;;;;;;;10.55;59.88;99347.50;5045877;28;20053;-61
2023/01/13 11:08:21;;;;;;;12.93;2.90;;;;;;;11.17;58.37;99322.59;5051976;28;20052;-60
2023/01/13 11:10:51;;;;;;;14.40;3.53;;;;;;;11.27;57.80;99324.91;5052802;28;20048;-60
2023/01/13 11:13:20;;;;;;;;;;;;;;;11.63;56.92;99312.13;5049434;28;20075;-60
2023/01/13 11:15:59;;;;;;;13.40;3.05;;;;;;;11.49;57.55;99328.44;5050474;28;19928;-60
2023/01/13 11:18:42;;;;;;;13.13;3.17;;;;;;;12.28;55.69;99330.88;5050465;28;20044;-62
2023/01/13 11:21:19;;;;;;;10.77;3.38;;;;;;;12.52;54.33;99330.78;5048517;28;20488;-60
2023/01/13 11:23:52;;;;;;;12.15;3.28;;;;;;;11.98;55.06;99328.41;5049641;28;20071;-60
2023/01/13 11:26:23;;;;;;;13.20;3.60;;;;;;;11.57;55.16;99327.50;5055081;28;20045;-60
2023/01/13 11:28:57;;;;;;;13.73;3.00;;;;;;;11.56;55.96;99350.97;5048507;28;20063;-61
2023/01/13 11:31:30;;;;;;;8.88;2.35;;;;;;;11.45;56.03;99370.13;5051168;28;20049;-61
2023/01/13 11:34:03;;;;;;;7.95;2.42;;;;;;;11.32;56.24;99319.13;5051889;28;20060;-60
2023/01/13 11:36:38;;;;;;;9.98;2.92;;;;;;;11.33;56.92;99331.91;5052351;28;20052;-65
2023/01/13 11:39:18;;;;;;;10.05;2.67;;;;;;;11.19;57.68;99336.97;5051092;28;20060;-66
2023/01/13 11:42:19;;;;;;;12.98;3.28;;;;;;;11.15;58.09;99341.66;5050476;28;20045;-67
2023/01/13 11:44:42;;;;;;;13.80;3.53;;;;;;;11.10;57.36;99325.94;5047599;28;20053;-67
2023/01/13 11:47:11;;;;;;;15.10;3.67;;;;;;;11.16;56.79;99326.53;5046970;28;20500;-68
2023/01/13 11:49:39;;;;;;;;;;;;;;;11.30;56.76;99331.78;5049016;28;20485;-65
2023/01/13 11:52:16;;;;;;;12.57;3.67;;;;;;;11.18;56.66;99324.22;5051081;28;19920;-60
2023/01/13 11:55:05;;;;;;;9.75;3.00;;;;;;;11.18;56.96;99335.38;5047887;28;20405;-61
2023/01/13 11:57:55;;;;;;;13.02;3.72;;;;;;;12.34;54.84;99354.59;5048731;28;20486;-60
2023/01/13 12:00:36;;;;;;;14.10;8.27;;;;;;;15.18;50.36;99309.72;5046940;28;20045;-60
2023/01/13 12:03:22;;;;;;;44.55;41.80;;;;;;;17.52;42.03;99316.38;5049487;28;20053;-61
2023/01/13 12:06:04;;;;;;;11.15;2.70;;;;;;;14.26;47.67;99331.09;5049049;28;20048;-66
2023/01/13 12:08:49;;;;;;;9.40;2.63;;;;;;;12.79;50.72;99342.31;5047954;28;20041;-64
2023/01/13 12:11:24;;;;;;;13.70;4.00;;;;;;;12.42;52.95;99328.50;5048227;28;20049;-67
2023/01/13 12:14:08;;;;;;;9.98;2.90;;;;;;;12.31;53.29;99338.56;5051381;28;20490;-66
2023/01/13 12:16:47;;;;;;;15.10;3.05;;;;;;;12.19;55.03;99356.94;5050313;28;20500;-66
2023/01/13 12:19:26;;;;;;;10.88;2.75;;;;;;;12.12;56.21;99342.78;5048953;28;20053;-66
2023/01/13 12:22:02;;;;;;;12.40;2.90;;;;;;;11.92;56.61;99350.16;5059457;28;20048;-70
2023/01/13 12:24:38;;;;;;;11.32;3.08;;;;;;;11.61;57.36;99336.78;5036187;28;20048;-67
2023/01/13 12:27:13;;;;;;;10.32;3.45;;;;;;;11.44;57.90;99350.94;5049609;28;20405;-65
2023/01/13 12:29:40;;;;;;;12.32;2.70;;;;;;;11.12;60.54;99347.91;5050905;28;20059;-68
2023/01/13 12:32:14;;;;;;;10.77;2.78;;;;;;;11.12;61.49;99342.34;5050085;28;20059;-66
2023/01/13 12:34:56;;;;;;;10.05;2.97;;;;;;;10.94;62.28;99347.28;5049002;28;20060;-68
2023/01/13 12:37:28;;;;;;;11.98;2.92;;;;;;;10.89;62.56;99347.50;5047342;28;20405;-66